createdAt,value
2022-12-03T00:01:03.099Z,1.00
2022-12-03T00:02:06.849Z,1.00
2022-12-03T00:03:10.198Z,0.50
2022-12-03T00:04:13.661Z,0.00
2022-12-03T00:05:16.944Z,0.43
2022-12-03T00:06:20.435Z,0.83
2022-12-03T00:07:23.955Z,1.00
2022-12-03T00:08:27.112Z,0.57
2022-12-03T00:09:30.389Z,0.29
2022-12-03T00:10:33.791Z,1.00
2022-12-03T00:11:37.263Z,0.57
2022-12-03T00:12:40.520Z,0.00
2022-12-03T00:13:43.737Z,0.00
2022-12-03T00:14:47.230Z,0.43
2022-12-03T00:15:50.592Z,1.00
2022-12-03T00:16:53.611Z,0.57
2022-12-03T00:17:56.972Z,0.14
2022-12-03T00:19:00.152Z,1.29
2022-12-03T00:20:03.235Z,1.00
2022-12-03T00:21:06.620Z,0.57
2022-12-03T00:22:10.923Z,1.00
2022-12-03T00:23:14.224Z,0.88
2022-12-03T00:24:17.504Z,0.00
2022-12-03T00:25:20.891Z,0.71
2022-12-03T00:26:24.581Z,1.57
2022-12-03T00:27:27.766Z,1.43
2022-12-03T00:28:31.448Z,1.17
2022-12-03T00:29:34.629Z,0.43
2022-12-03T00:30:38.542Z,0.57
2022-12-03T00:31:42.828Z,0.88
2022-12-03T00:32:46.040Z,0.00
2022-12-03T00:33:49.408Z,0.29
2022-12-03T00:34:52.889Z,0.86
2022-12-03T00:35:56.386Z,1.50
2022-12-03T00:36:59.573Z,1.57
2022-12-03T00:38:02.851Z,1.43
2022-12-03T00:39:06.139Z,1.14
2022-12-03T00:40:09.328Z,2.00
2022-12-03T00:41:12.708Z,1.86
2022-12-03T00:42:16.301Z,0.86
2022-12-03T00:43:19.688Z,1.14
2022-12-03T00:44:23.066Z,0.57
2022-12-03T00:45:26.562Z,1.00
2022-12-03T00:46:29.990Z,1.43
2022-12-03T00:47:33.434Z,1.00
2022-12-03T00:48:36.930Z,0.71
2022-12-03T00:49:40.306Z,0.57
2022-12-03T00:50:43.502Z,1.43
2022-12-03T00:51:46.884Z,1.86
2022-12-03T00:52:49.954Z,1.00
2022-12-03T00:53:53.342Z,0.57
2022-12-03T00:54:56.670Z,0.29
2022-12-03T00:56:00.113Z,1.00
2022-12-03T00:57:03.296Z,1.57
2022-12-03T00:58:06.899Z,0.86
2022-12-03T00:59:10.276Z,1.43
2022-12-03T01:00:13.457Z,2.00
2022-12-03T01:01:16.920Z,1.57
2022-12-03T01:02:20.192Z,0.67
2022-12-03T01:03:23.323Z,0.86
2022-12-03T01:04:26.631Z,1.29
2022-12-03T01:05:29.779Z,0.71
2022-12-03T01:06:32.937Z,0.57
2022-12-03T01:07:36.020Z,1.57
2022-12-03T01:08:39.020Z,0.83
2022-12-03T01:09:42.201Z,0.67
2022-12-03T01:10:45.278Z,0.00
2022-12-03T01:11:48.471Z,0.00
2022-12-03T01:12:51.638Z,0.00
2022-12-03T01:13:54.820Z,0.86
2022-12-03T01:14:58.007Z,0.43
2022-12-03T01:16:01.264Z,0.29
2022-12-03T01:17:04.372Z,0.43
2022-12-03T01:18:07.562Z,1.43
2022-12-03T01:19:10.838Z,0.57
2022-12-03T01:20:14.223Z,0.43
2022-12-03T01:21:17.814Z,0.71
2022-12-03T01:22:21.115Z,0.00
2022-12-03T01:23:24.381Z,0.29
2022-12-03T01:24:27.464Z,1.43
2022-12-03T01:25:30.744Z,1.14
2022-12-03T01:26:34.032Z,1.00
2022-12-03T01:27:37.517Z,0.00
2022-12-03T01:28:40.907Z,0.00
2022-12-03T01:29:44.187Z,0.43
2022-12-03T01:30:47.293Z,0.57
2022-12-03T01:31:50.549Z,1.00
2022-12-03T01:32:53.734Z,0.86
2022-12-03T01:33:56.914Z,0.43
2022-12-03T01:34:59.872Z,1.00
2022-12-03T01:36:02.873Z,0.57
2022-12-03T01:37:06.153Z,0.00
2022-12-03T01:38:09.335Z,0.00
2022-12-03T01:39:12.516Z,0.00
2022-12-03T01:40:15.905Z,0.00
2022-12-03T01:41:19.297Z,0.00
2022-12-03T01:42:23.086Z,0.43
2022-12-03T01:43:26.372Z,0.57
2022-12-03T01:44:29.861Z,0.29
2022-12-03T01:45:33.172Z,0.00
2022-12-03T01:46:36.575Z,0.00
2022-12-03T01:47:39.914Z,0.43
2022-12-03T01:48:43.208Z,0.57
2022-12-03T01:49:46.590Z,0.00
2022-12-03T01:50:49.768Z,0.57
2022-12-03T01:51:52.952Z,0.14
2022-12-03T01:52:56.028Z,1.00
2022-12-03T01:53:59.523Z,1.00
2022-12-03T01:55:02.609Z,0.57
2022-12-03T01:56:05.890Z,0.00
2022-12-03T01:57:08.963Z,1.00
2022-12-03T01:58:12.141Z,0.57
2022-12-03T01:59:15.325Z,0.00
2022-12-03T02:00:18.575Z,0.00
2022-12-03T02:01:21.629Z,0.00
2022-12-03T02:02:24.965Z,0.00
2022-12-03T02:03:28.209Z,0.43
2022-12-03T02:04:31.363Z,1.00
2022-12-03T02:05:34.522Z,1.00
2022-12-03T02:06:37.906Z,0.57
2022-12-03T02:07:41.237Z,0.00
2022-12-03T02:08:44.481Z,0.00
2022-12-03T02:09:47.633Z,0.43
2022-12-03T02:10:52.055Z,0.57
2022-12-03T02:11:55.250Z,0.00
2022-12-03T02:12:58.640Z,0.00
2022-12-03T02:14:01.625Z,0.00
2022-12-03T02:15:04.705Z,0.43
2022-12-03T02:16:07.731Z,1.00
2022-12-03T02:17:10.971Z,1.00
2022-12-03T02:18:13.927Z,0.00
2022-12-03T02:19:16.913Z,0.00
2022-12-03T02:20:20.089Z,0.14
2022-12-03T02:21:23.269Z,0.00
2022-12-03T02:22:26.453Z,0.43
2022-12-03T02:23:29.642Z,1.00
2022-12-03T02:24:32.695Z,0.57
2022-12-03T02:25:35.806Z,0.00
2022-12-03T02:26:38.969Z,0.43
2022-12-03T02:27:42.135Z,0.57
2022-12-03T02:28:45.292Z,0.00
2022-12-03T02:29:48.433Z,0.71
2022-12-03T02:30:51.648Z,1.00
2022-12-03T02:31:55.252Z,0.57
2022-12-03T02:32:58.885Z,0.43
2022-12-03T02:34:02.274Z,0.62
2022-12-03T02:35:05.363Z,0.14
2022-12-03T02:36:08.740Z,0.43
2022-12-03T02:37:12.022Z,1.00
2022-12-03T02:38:15.434Z,0.29
2022-12-03T02:39:18.703Z,0.43
2022-12-03T02:40:22.089Z,0.67
2022-12-03T02:41:25.773Z,0.00
2022-12-03T02:42:28.957Z,0.43
2022-12-03T02:43:32.240Z,0.43
2022-12-03T02:44:35.329Z,0.33
2022-12-03T02:45:38.501Z,0.67
2022-12-03T02:46:41.732Z,0.00
2022-12-03T02:47:44.868Z,0.00
2022-12-03T02:48:47.943Z,0.00
2022-12-03T02:49:51.234Z,0.00
2022-12-03T02:50:54.259Z,0.00
2022-12-03T02:51:57.389Z,0.00
2022-12-03T02:53:00.468Z,0.00
2022-12-03T02:54:03.547Z,0.00
2022-12-03T02:55:06.626Z,0.00
2022-12-03T02:56:09.906Z,0.00
2022-12-03T02:57:13.194Z,0.00
2022-12-03T02:58:16.276Z,0.00
2022-12-03T02:59:19.355Z,0.00
2022-12-03T03:00:22.345Z,0.33
2022-12-03T03:01:25.346Z,0.00
2022-12-03T03:02:28.582Z,0.00
2022-12-03T03:03:31.672Z,0.00
2022-12-03T03:04:34.655Z,0.00
2022-12-03T03:05:37.832Z,0.00
2022-12-03T03:06:41.003Z,0.43
2022-12-03T03:07:44.127Z,0.00
2022-12-03T03:08:47.280Z,0.00
2022-12-03T03:09:50.561Z,0.00
2022-12-03T03:10:53.734Z,0.00
2022-12-03T03:11:57.128Z,0.00
2022-12-03T03:13:00.409Z,0.00
2022-12-03T03:14:03.595Z,0.43
2022-12-03T03:15:06.876Z,0.57
2022-12-03T03:16:09.926Z,0.00
2022-12-03T03:17:13.034Z,0.43
2022-12-03T03:18:16.146Z,0.57
2022-12-03T03:19:19.193Z,0.00
2022-12-03T03:20:22.594Z,0.83
2022-12-03T03:21:25.765Z,1.00
2022-12-03T03:22:28.943Z,1.00
2022-12-03T03:23:32.019Z,0.14
2022-12-03T03:24:35.204Z,0.43
2022-12-03T03:25:38.382Z,0.17
2022-12-03T03:26:41.579Z,0.00
2022-12-03T03:27:44.851Z,0.00
2022-12-03T03:28:48.048Z,0.00
2022-12-03T03:29:51.325Z,0.00
2022-12-03T03:30:54.534Z,0.00
2022-12-03T03:31:57.705Z,0.00
2022-12-03T03:33:01.170Z,0.00
2022-12-03T03:34:04.359Z,0.00
2022-12-03T03:35:07.444Z,0.00
2022-12-03T03:36:10.717Z,0.00
2022-12-03T03:37:14.001Z,0.00
2022-12-03T03:38:17.282Z,0.71
2022-12-03T03:39:20.373Z,0.57
2022-12-03T03:40:23.345Z,0.43
2022-12-03T03:41:26.413Z,0.57
2022-12-03T03:42:29.511Z,0.00
2022-12-03T03:43:32.575Z,0.00
2022-12-03T03:44:35.589Z,0.00
2022-12-03T03:45:38.783Z,0.00
2022-12-03T03:46:42.023Z,0.43
2022-12-03T03:47:45.627Z,1.00
2022-12-03T03:48:48.694Z,0.50
2022-12-03T03:49:51.776Z,0.33
2022-12-03T03:50:54.955Z,0.00
2022-12-03T03:51:58.144Z,0.17
2022-12-03T03:53:01.319Z,0.00
2022-12-03T03:54:04.713Z,0.00
2022-12-03T03:55:07.793Z,0.67
2022-12-03T03:56:10.762Z,0.33
2022-12-03T03:57:13.773Z,0.67
2022-12-03T03:58:16.724Z,0.57
2022-12-03T03:59:19.816Z,0.00
2022-12-03T04:00:22.891Z,0.33
2022-12-03T04:01:26.195Z,0.83
2022-12-03T04:02:29.341Z,0.67
2022-12-03T04:03:32.633Z,0.00
2022-12-03T04:04:35.819Z,0.00
2022-12-03T04:05:38.947Z,0.43
2022-12-03T04:06:42.173Z,0.67
2022-12-03T04:07:45.304Z,0.86
2022-12-03T04:08:48.541Z,1.00
2022-12-03T04:09:51.622Z,1.00
2022-12-03T04:10:54.753Z,0.00
2022-12-03T04:11:57.783Z,0.00
2022-12-03T04:13:00.962Z,1.00
2022-12-03T04:14:04.043Z,0.14
2022-12-03T04:15:07.009Z,0.43
2022-12-03T04:16:09.950Z,1.00
2022-12-03T04:17:12.963Z,0.67
2022-12-03T04:18:16.082Z,0.00
2022-12-03T04:19:19.232Z,1.00
2022-12-03T04:20:22.325Z,0.57
2022-12-03T04:21:25.281Z,0.00
2022-12-03T04:22:28.362Z,0.43
2022-12-03T04:23:31.467Z,0.57
2022-12-03T04:24:34.621Z,0.33
2022-12-03T04:25:37.611Z,0.67
2022-12-03T04:26:40.791Z,0.00
2022-12-03T04:27:43.861Z,0.00
2022-12-03T04:28:47.068Z,0.00
2022-12-03T04:29:50.226Z,0.50
2022-12-03T04:30:53.459Z,0.00
2022-12-03T04:31:56.605Z,0.00
2022-12-03T04:32:59.596Z,0.00
2022-12-03T04:34:02.545Z,0.00
2022-12-03T04:35:05.670Z,0.00
2022-12-03T04:36:08.698Z,0.00
2022-12-03T04:37:11.689Z,0.33
2022-12-03T04:38:14.859Z,0.67
2022-12-03T04:39:17.937Z,0.00
2022-12-03T04:40:21.088Z,0.00
2022-12-03T04:41:24.149Z,0.00
2022-12-03T04:42:27.288Z,0.00
2022-12-03T04:43:30.481Z,0.00
2022-12-03T04:44:33.863Z,0.29
2022-12-03T04:45:37.067Z,0.57
2022-12-03T04:46:40.436Z,0.00
2022-12-03T04:47:43.809Z,0.00
2022-12-03T04:48:46.883Z,0.00
2022-12-03T04:49:50.169Z,0.00
2022-12-03T04:50:53.257Z,0.00
2022-12-03T04:51:56.540Z,0.00
2022-12-03T04:52:59.723Z,0.00
2022-12-03T04:54:02.800Z,0.00
2022-12-03T05:01:25.317Z,0.00
2022-12-03T05:02:28.505Z,0.00
2022-12-03T05:03:31.644Z,0.00
2022-12-03T05:04:34.718Z,0.00
2022-12-03T05:05:37.690Z,0.00
2022-12-03T05:06:40.979Z,0.00
2022-12-03T05:07:44.251Z,0.00
2022-12-03T05:08:47.448Z,0.00
2022-12-03T05:09:50.525Z,0.00
2022-12-03T05:10:53.914Z,0.00
2022-12-03T05:11:57.094Z,0.00
2022-12-03T05:13:00.272Z,0.00
2022-12-03T05:14:03.476Z,0.00
2022-12-03T05:15:06.753Z,0.00
2022-12-03T05:16:10.323Z,0.00
2022-12-03T05:17:13.362Z,0.00
2022-12-03T05:18:16.523Z,0.00
2022-12-03T05:19:19.569Z,0.00
2022-12-03T05:20:22.652Z,0.00
2022-12-03T05:21:25.834Z,0.00
2022-12-03T05:22:28.911Z,0.00
2022-12-03T05:23:31.894Z,0.00
2022-12-03T05:24:35.091Z,0.00
2022-12-03T05:25:38.159Z,0.00
2022-12-03T05:26:41.353Z,0.00
2022-12-03T05:27:44.412Z,0.43
2022-12-03T05:28:47.601Z,1.00
2022-12-03T05:29:50.771Z,0.57
2022-12-03T05:30:53.809Z,0.43
2022-12-03T05:31:56.929Z,0.57
2022-12-03T05:33:00.225Z,0.00
2022-12-03T05:34:03.501Z,0.00
2022-12-03T05:35:06.682Z,0.00
2022-12-03T05:36:09.763Z,0.00
2022-12-03T05:37:12.949Z,0.00
2022-12-03T05:38:16.328Z,0.00
2022-12-03T05:39:19.506Z,0.00
2022-12-03T05:40:22.592Z,0.00
2022-12-03T05:41:25.671Z,0.00
2022-12-03T05:42:28.651Z,0.00
2022-12-03T05:43:31.729Z,0.00
2022-12-03T05:44:35.112Z,0.00
2022-12-03T05:45:38.605Z,0.57
2022-12-03T05:46:41.748Z,0.57
2022-12-03T05:47:44.968Z,0.00
2022-12-03T05:48:48.455Z,0.00
2022-12-03T05:49:51.640Z,0.43
2022-12-03T05:50:54.921Z,0.57
2022-12-03T05:51:58.819Z,0.00
2022-12-03T05:53:02.097Z,0.00
2022-12-03T05:54:05.178Z,0.00
2022-12-03T05:55:08.368Z,0.00
2022-12-03T05:56:11.546Z,0.00
2022-12-03T05:57:14.738Z,0.43
2022-12-03T05:58:19.631Z,0.57
2022-12-03T05:59:22.219Z,0.00
2022-12-03T06:00:25.403Z,0.00
2022-12-03T06:01:28.380Z,0.57
2022-12-03T06:02:31.683Z,0.00
2022-12-03T06:03:34.948Z,0.00
2022-12-03T06:04:38.028Z,0.00
2022-12-03T06:05:41.107Z,0.43
2022-12-03T06:06:44.180Z,0.17
2022-12-03T06:07:47.567Z,0.00
2022-12-03T06:08:50.861Z,0.33
2022-12-03T06:09:53.942Z,0.29
2022-12-03T06:10:57.018Z,0.00
2022-12-03T06:12:00.100Z,0.33
2022-12-03T06:13:03.279Z,0.67
2022-12-03T06:14:06.559Z,0.00
2022-12-03T06:15:09.854Z,0.00
2022-12-03T06:16:13.187Z,0.00
2022-12-03T06:17:16.333Z,0.00
2022-12-03T06:18:19.597Z,0.00
2022-12-03T06:19:22.883Z,0.00
2022-12-03T06:20:26.067Z,0.00
2022-12-03T06:21:29.248Z,0.00
2022-12-03T06:22:32.366Z,0.00
2022-12-03T06:23:36.119Z,0.00
2022-12-03T06:24:39.423Z,0.00
2022-12-03T06:25:42.622Z,0.00
2022-12-03T06:26:45.978Z,0.00
2022-12-03T06:27:49.668Z,0.00
2022-12-03T06:28:53.259Z,0.00
2022-12-03T06:29:56.438Z,0.00
2022-12-03T06:30:59.808Z,0.00
2022-12-03T06:32:03.022Z,0.00
2022-12-03T06:33:06.089Z,0.00
2022-12-03T06:34:09.188Z,0.00
2022-12-03T06:35:12.271Z,0.17
2022-12-03T06:36:17.751Z,0.00
2022-12-03T06:37:20.146Z,0.50
2022-12-03T06:38:23.536Z,0.29
2022-12-03T06:39:26.720Z,0.29
2022-12-03T06:40:29.906Z,0.00
2022-12-03T06:41:33.686Z,0.43
2022-12-03T06:42:36.779Z,0.62
2022-12-03T06:43:39.960Z,0.43
2022-12-03T06:44:43.049Z,0.00
2022-12-03T06:45:47.852Z,0.17
2022-12-03T06:46:50.719Z,0.00
2022-12-03T06:47:54.115Z,0.43
2022-12-03T06:48:57.302Z,0.14
2022-12-03T06:50:00.692Z,0.29
2022-12-03T06:51:03.975Z,0.00
2022-12-03T06:52:07.361Z,0.00
2022-12-03T06:53:10.440Z,0.43
2022-12-03T06:54:13.420Z,0.67
2022-12-03T06:55:16.591Z,0.29
2022-12-03T06:56:22.322Z,0.57
2022-12-03T06:57:24.710Z,0.00
2022-12-03T06:58:27.993Z,0.00
2022-12-03T06:59:31.166Z,0.00
2022-12-03T07:00:34.149Z,0.00
2022-12-03T07:01:37.167Z,0.00
2022-12-03T07:02:40.235Z,0.00
2022-12-03T07:03:43.178Z,0.00
2022-12-03T07:04:52.564Z,0.00
2022-12-03T07:05:51.892Z,0.00
2022-12-03T07:06:54.967Z,0.50
2022-12-03T07:07:58.234Z,0.67
2022-12-03T07:09:01.244Z,0.00
2022-12-03T07:10:04.318Z,0.17
2022-12-03T07:11:07.712Z,1.00
2022-12-03T07:12:10.982Z,1.00
2022-12-03T07:13:14.047Z,0.00
2022-12-03T07:14:17.144Z,0.00
2022-12-03T07:15:20.329Z,0.29
2022-12-03T07:16:23.544Z,0.43
2022-12-03T07:17:26.894Z,1.00
2022-12-03T07:18:30.086Z,1.00
2022-12-03T07:19:33.334Z,0.57
2022-12-03T07:20:36.548Z,0.43
2022-12-03T07:21:39.541Z,0.86
2022-12-03T07:22:42.601Z,0.86
2022-12-03T07:23:45.690Z,0.43
2022-12-03T07:24:48.974Z,1.00
2022-12-03T07:25:52.163Z,0.50
2022-12-03T07:26:55.250Z,0.17
2022-12-03T07:27:58.534Z,1.00
2022-12-03T07:29:01.511Z,0.50
2022-12-03T07:30:04.479Z,0.00
2022-12-03T07:31:07.678Z,0.00
2022-12-03T07:32:10.731Z,0.43
2022-12-03T07:33:13.705Z,0.67
2022-12-03T07:34:16.781Z,0.00
2022-12-03T07:35:19.771Z,0.00
2022-12-03T07:36:23.041Z,0.00
2022-12-03T07:37:26.042Z,0.00
2022-12-03T07:38:29.208Z,0.00
2022-12-03T07:39:32.587Z,0.00
2022-12-03T07:40:35.493Z,0.67
2022-12-03T07:41:38.543Z,0.17
2022-12-03T07:42:41.624Z,0.57
2022-12-03T07:43:45.122Z,0.86
2022-12-03T07:44:48.703Z,0.57
2022-12-03T07:45:52.089Z,0.50
2022-12-03T07:46:55.688Z,0.86
2022-12-03T07:47:59.082Z,0.43
2022-12-03T07:49:02.666Z,1.00
2022-12-03T07:50:05.741Z,1.00
2022-12-03T07:51:10.524Z,0.67
2022-12-03T07:52:13.540Z,0.00
2022-12-03T07:53:16.827Z,0.00
2022-12-03T07:54:20.115Z,0.43
2022-12-03T07:55:23.486Z,1.00
2022-12-03T07:56:26.690Z,1.00
2022-12-03T07:57:29.870Z,0.71
2022-12-03T07:58:33.149Z,0.00
2022-12-03T07:59:36.733Z,0.29
2022-12-03T08:00:40.171Z,0.86
2022-12-03T08:01:43.636Z,1.00
2022-12-03T08:02:46.939Z,0.43
2022-12-03T08:03:50.479Z,0.00
2022-12-03T08:04:53.863Z,0.43
2022-12-03T08:05:57.052Z,0.86
2022-12-03T08:07:00.136Z,0.29
2022-12-03T08:08:03.575Z,0.00
2022-12-03T08:09:06.601Z,0.00
2022-12-03T08:10:09.985Z,0.33
2022-12-03T08:11:13.369Z,0.50
2022-12-03T08:12:16.549Z,0.00
2022-12-03T08:13:19.706Z,0.67
2022-12-03T08:14:22.960Z,0.00
2022-12-03T08:15:26.210Z,0.00
2022-12-03T08:16:29.385Z,0.33
2022-12-03T08:17:32.673Z,1.00
2022-12-03T08:18:35.851Z,0.00
2022-12-03T08:19:39.345Z,0.00
2022-12-03T08:20:42.731Z,0.00
2022-12-03T08:21:46.113Z,0.43
2022-12-03T08:22:49.506Z,1.00
2022-12-03T08:23:52.898Z,0.57
2022-12-03T08:24:56.217Z,0.43
2022-12-03T08:25:59.438Z,0.57
2022-12-03T08:27:02.439Z,0.00
2022-12-03T08:28:05.922Z,0.43
2022-12-03T08:29:09.304Z,1.00
2022-12-03T08:30:12.490Z,1.00
2022-12-03T08:31:15.827Z,1.00
2022-12-03T08:32:19.333Z,0.57
2022-12-03T08:33:22.762Z,0.00
2022-12-03T08:34:26.044Z,0.00
2022-12-03T08:35:29.738Z,0.00
2022-12-03T08:36:33.217Z,0.43
2022-12-03T08:37:36.638Z,1.00
2022-12-03T08:38:40.100Z,0.57
2022-12-03T08:39:43.484Z,0.71
2022-12-03T08:40:46.464Z,1.00
2022-12-03T08:41:49.583Z,1.00
2022-12-03T08:42:52.820Z,1.00
2022-12-03T08:43:56.117Z,1.00
2022-12-03T08:44:59.069Z,1.00
2022-12-03T08:46:02.186Z,0.57
2022-12-03T08:47:05.234Z,0.86
2022-12-03T08:48:08.939Z,1.00
2022-12-03T08:49:12.257Z,1.00
2022-12-03T08:50:15.507Z,1.00
2022-12-03T08:51:18.814Z,1.00
2022-12-03T08:52:22.284Z,0.57
2022-12-03T08:53:25.657Z,0.43
2022-12-03T08:54:32.021Z,0.83
2022-12-03T08:55:35.301Z,1.00
2022-12-03T08:56:38.591Z,1.00
2022-12-03T08:57:41.952Z,1.29
2022-12-03T08:58:45.050Z,2.00
2022-12-03T08:59:48.028Z,1.57
2022-12-03T09:00:51.181Z,1.00
2022-12-03T09:01:54.194Z,0.83
2022-12-03T09:02:57.044Z,1.00
2022-12-03T09:04:00.170Z,0.67
2022-12-03T09:05:03.222Z,0.00
2022-12-03T09:06:06.308Z,0.33
2022-12-03T09:07:09.385Z,1.00
2022-12-03T09:08:12.546Z,1.43
2022-12-03T09:09:15.750Z,1.29
2022-12-03T09:10:18.721Z,1.00
2022-12-03T09:11:21.707Z,1.00
2022-12-03T09:12:24.981Z,1.00
2022-12-03T09:13:28.274Z,1.00
2022-12-03T09:14:31.550Z,1.14
2022-12-03T09:15:34.839Z,1.43
2022-12-03T09:16:38.215Z,1.00
2022-12-03T09:17:41.611Z,1.71
2022-12-03T09:18:45.000Z,1.57
2022-12-03T09:19:48.190Z,0.57
2022-12-03T09:20:51.462Z,1.14
2022-12-03T09:21:54.707Z,1.57
2022-12-03T09:22:57.623Z,1.43
2022-12-03T09:24:00.803Z,2.00
2022-12-03T09:25:03.881Z,1.67
2022-12-03T09:26:07.283Z,0.86
2022-12-03T09:27:10.457Z,1.57
2022-12-03T09:28:13.752Z,1.29
2022-12-03T09:29:17.086Z,1.00
2022-12-03T09:30:20.303Z,1.57
2022-12-03T09:31:23.477Z,2.00
2022-12-03T09:32:26.968Z,2.00
2022-12-03T09:33:30.161Z,2.00
2022-12-03T09:34:33.542Z,2.29
2022-12-03T09:35:37.242Z,1.57
2022-12-03T09:36:40.423Z,1.57
2022-12-03T09:37:43.498Z,1.67
2022-12-03T09:38:48.201Z,1.00
2022-12-03T09:39:51.333Z,1.00
2022-12-03T09:40:54.892Z,1.00
2022-12-03T09:41:58.399Z,1.00
2022-12-03T09:43:01.462Z,1.43
2022-12-03T09:44:05.571Z,2.00
2022-12-03T09:45:08.853Z,1.37
2022-12-03T09:46:12.307Z,1.43
2022-12-03T09:47:16.121Z,1.71
2022-12-03T09:48:20.082Z,1.50
2022-12-03T09:49:23.430Z,1.43
2022-12-03T09:50:26.788Z,1.57
2022-12-03T09:51:30.787Z,1.50
2022-12-03T09:52:34.387Z,1.00
2022-12-03T09:53:41.226Z,1.00
2022-12-03T09:54:47.102Z,1.12
2022-12-03T09:55:47.626Z,1.50
2022-12-03T09:56:51.169Z,2.00
2022-12-03T09:57:54.800Z,1.57
2022-12-03T09:58:58.386Z,1.43
2022-12-03T10:00:01.773Z,2.00
2022-12-03T10:01:05.187Z,1.57
2022-12-03T10:02:09.084Z,1.43
2022-12-03T10:03:12.358Z,1.57
2022-12-03T10:04:16.139Z,1.43
2022-12-03T10:05:19.423Z,1.00
2022-12-03T10:06:22.868Z,1.00
2022-12-03T10:07:26.330Z,1.00
2022-12-03T10:08:32.189Z,1.00
2022-12-03T10:09:34.299Z,1.00
2022-12-03T10:10:37.536Z,1.00
2022-12-03T10:11:40.849Z,1.00
2022-12-03T10:12:44.360Z,1.00
2022-12-03T10:13:47.743Z,0.71
2022-12-03T10:14:52.047Z,1.00
2022-12-03T10:15:55.747Z,1.00
2022-12-03T10:16:58.952Z,1.43
2022-12-03T10:18:02.311Z,1.57
2022-12-03T10:19:05.760Z,1.00
2022-12-03T10:20:09.698Z,1.43
2022-12-03T10:21:13.297Z,1.50
2022-12-03T10:22:17.089Z,1.00
2022-12-03T10:23:20.776Z,1.00
2022-12-03T10:24:24.280Z,1.00
2022-12-03T10:25:27.968Z,1.00
2022-12-03T10:26:31.563Z,1.43
2022-12-03T10:27:35.222Z,1.50
2022-12-03T10:28:38.639Z,1.43
2022-12-03T10:29:43.946Z,1.57
2022-12-03T10:30:47.624Z,2.00
2022-12-03T10:31:51.263Z,1.37
2022-12-03T10:32:54.847Z,1.00
2022-12-03T10:33:58.342Z,1.00
2022-12-03T10:35:01.824Z,1.00
2022-12-03T10:36:05.331Z,1.43
2022-12-03T10:37:08.902Z,1.57
2022-12-03T10:38:12.259Z,1.29
2022-12-03T10:39:15.793Z,1.83
2022-12-03T10:40:19.369Z,1.57
2022-12-03T10:41:22.960Z,1.00
2022-12-03T10:42:26.662Z,1.00
2022-12-03T10:43:30.663Z,1.00
2022-12-03T10:44:34.458Z,1.00
2022-12-03T10:45:38.152Z,1.00
2022-12-03T10:46:42.049Z,1.43
2022-12-03T10:47:45.722Z,1.50
2022-12-03T10:48:49.147Z,1.43
2022-12-03T10:49:52.616Z,1.57
2022-12-03T10:50:56.231Z,1.00
2022-12-03T10:51:59.389Z,1.43
2022-12-03T10:53:03.085Z,1.57
2022-12-03T10:54:06.882Z,1.00
2022-12-03T10:55:10.530Z,1.00
2022-12-03T10:56:13.762Z,1.00
2022-12-03T10:57:17.251Z,1.43
2022-12-03T10:58:20.592Z,1.57
2022-12-03T10:59:23.825Z,0.67
2022-12-03T11:00:27.054Z,1.00
2022-12-03T11:01:30.209Z,1.00
2022-12-03T11:02:33.686Z,1.00
2022-12-03T11:03:37.106Z,1.00
2022-12-03T11:04:40.860Z,1.00
2022-12-03T11:05:44.655Z,1.00
2022-12-03T11:06:48.448Z,1.50
2022-12-03T11:07:52.060Z,2.43
2022-12-03T11:08:58.727Z,2.14
2022-12-03T11:09:59.940Z,1.00
2022-12-03T11:11:03.636Z,0.71
2022-12-03T11:12:06.907Z,1.00
2022-12-03T11:13:10.352Z,0.83
2022-12-03T11:14:18.089Z,1.00
2022-12-03T11:15:18.560Z,1.00
2022-12-03T11:16:21.593Z,1.00
2022-12-03T11:17:25.068Z,1.43
2022-12-03T11:18:28.863Z,1.57
2022-12-03T11:19:32.360Z,1.00
2022-12-03T11:20:36.049Z,1.00
2022-12-03T11:21:39.748Z,1.00
2022-12-03T11:22:43.442Z,0.57
2022-12-03T11:23:47.046Z,0.50
2022-12-03T11:24:50.395Z,2.00
2022-12-03T11:25:53.767Z,1.57
2022-12-03T11:26:56.845Z,1.00
2022-12-03T11:28:00.180Z,0.57
2022-12-03T11:29:03.559Z,0.43
2022-12-03T11:30:07.041Z,1.43
2022-12-03T11:31:10.866Z,1.29
2022-12-03T11:32:14.434Z,1.00
2022-12-03T11:33:18.124Z,1.43
2022-12-03T11:34:21.876Z,1.71
2022-12-03T11:35:25.613Z,1.14
2022-12-03T11:36:54.060Z,1.00
2022-12-03T11:37:34.337Z,1.50
2022-12-03T11:38:37.929Z,1.71
2022-12-03T11:39:41.619Z,2.00
2022-12-03T11:40:44.899Z,1.57
2022-12-03T11:41:48.499Z,1.00
2022-12-03T11:42:52.291Z,1.00
2022-12-03T11:43:55.633Z,1.25
2022-12-03T11:44:58.861Z,1.57
2022-12-03T11:46:04.380Z,1.86
2022-12-03T11:47:06.789Z,2.00
2022-12-03T11:48:10.039Z,1.00
2022-12-03T11:49:13.639Z,0.57
2022-12-03T11:50:17.103Z,1.43
2022-12-03T11:51:20.613Z,2.00
2022-12-03T11:52:24.100Z,2.00
2022-12-03T11:53:27.699Z,2.00
2022-12-03T11:54:31.279Z,1.57
2022-12-03T11:55:35.074Z,1.00
2022-12-03T11:56:38.671Z,0.50
2022-12-03T11:57:42.268Z,0.86
2022-12-03T11:58:45.955Z,1.57
2022-12-03T11:59:49.957Z,1.00
2022-12-03T12:00:53.544Z,0.57
2022-12-03T12:01:57.031Z,0.43
2022-12-03T12:03:00.461Z,1.00
2022-12-03T12:04:04.165Z,1.00
2022-12-03T12:05:07.300Z,1.00
2022-12-03T12:06:10.489Z,1.00
2022-12-03T12:07:14.176Z,2.00
2022-12-03T12:08:17.729Z,1.43
2022-12-03T12:09:21.253Z,1.00
2022-12-03T12:10:24.845Z,1.00
2022-12-03T12:11:28.545Z,1.00
2022-12-03T12:12:32.138Z,1.00
2022-12-03T12:13:35.730Z,1.43
2022-12-03T12:14:39.416Z,1.57
2022-12-03T12:15:42.972Z,0.71
2022-12-03T12:16:46.437Z,0.00
2022-12-03T12:17:50.296Z,0.86
2022-12-03T12:18:55.444Z,1.71
2022-12-03T12:19:58.516Z,2.00
2022-12-03T12:21:01.848Z,1.57
2022-12-03T12:22:04.821Z,1.00
2022-12-03T12:23:08.044Z,0.86
2022-12-03T12:24:11.639Z,0.43
2022-12-03T12:25:15.082Z,0.57
2022-12-03T12:26:18.632Z,1.00
2022-12-03T12:27:21.961Z,1.43
2022-12-03T12:28:25.387Z,1.57
2022-12-03T12:29:28.881Z,1.25
2022-12-03T12:30:32.571Z,1.00
2022-12-03T12:31:36.868Z,1.00
2022-12-03T12:32:40.162Z,1.00
2022-12-03T12:33:43.552Z,1.00
2022-12-03T12:34:46.940Z,1.00
2022-12-03T12:35:50.396Z,1.00
2022-12-03T12:36:53.812Z,1.43
2022-12-03T12:38:00.218Z,1.00
2022-12-03T12:39:01.506Z,1.00
2022-12-03T12:40:04.690Z,0.86
2022-12-03T12:41:08.207Z,1.43
2022-12-03T12:42:11.383Z,1.57
2022-12-03T12:43:17.743Z,1.43
2022-12-03T12:44:19.057Z,1.87
2022-12-03T12:45:22.337Z,1.43
2022-12-03T12:46:47.136Z,2.00
2022-12-03T12:47:30.323Z,1.50
2022-12-03T12:48:33.834Z,1.00
2022-12-03T12:49:37.732Z,1.00
2022-12-03T12:50:41.325Z,1.00
2022-12-03T12:51:44.708Z,1.00
2022-12-03T12:52:48.196Z,1.00
2022-12-03T12:53:51.434Z,1.00
2022-12-03T12:54:54.667Z,1.00
2022-12-03T12:55:58.064Z,1.00
2022-12-03T12:57:01.351Z,1.00
2022-12-03T12:58:04.825Z,1.00
2022-12-03T12:59:08.278Z,1.00
2022-12-03T13:00:11.722Z,1.00
2022-12-03T13:01:15.176Z,1.00
2022-12-03T13:02:18.645Z,1.00
2022-12-03T13:03:22.265Z,1.00
2022-12-03T13:04:25.619Z,1.00
2022-12-03T13:05:28.938Z,1.43
2022-12-03T13:06:32.432Z,0.57
2022-12-03T13:07:35.959Z,0.86
2022-12-03T13:08:39.610Z,1.71
2022-12-03T13:09:42.997Z,1.43
2022-12-03T13:10:46.453Z,2.00
2022-12-03T13:11:50.179Z,2.00
2022-12-03T13:12:53.522Z,1.50
2022-12-03T13:21:28.746Z,2.00
2022-12-03T13:22:31.931Z,0.83
2022-12-03T13:23:35.114Z,2.00
2022-12-03T13:24:38.295Z,2.00
2022-12-03T13:26:45.884Z,3.12
2022-12-03T13:27:49.278Z,3.00
2022-12-03T13:28:52.657Z,2.00
2022-12-03T13:29:56.293Z,2.43
2022-12-03T13:30:59.862Z,3.57
2022-12-03T13:32:03.068Z,2.57
2022-12-03T13:33:06.306Z,2.00
2022-12-03T13:34:09.496Z,2.14
2022-12-03T13:35:12.670Z,2.43
2022-12-03T13:36:15.855Z,2.71
2022-12-03T13:37:19.142Z,2.86
2022-12-03T13:38:22.319Z,3.00
2022-12-03T13:39:26.116Z,3.67
2022-12-03T13:40:29.606Z,4.37
2022-12-03T13:41:32.793Z,3.43
2022-12-03T13:42:35.823Z,4.00
2022-12-03T13:43:42.855Z,3.29
2022-12-03T13:44:43.253Z,3.00
2022-12-03T13:45:46.563Z,3.43
2022-12-03T13:46:49.639Z,4.00
2022-12-03T13:47:52.827Z,4.00
2022-12-03T13:49:00.337Z,3.14
2022-12-03T13:50:00.484Z,3.12
2022-12-03T13:51:03.673Z,4.00
2022-12-03T13:52:06.959Z,4.00
2022-12-03T13:53:10.350Z,4.67
2022-12-03T13:54:15.995Z,6.14
2022-12-03T13:55:17.811Z,7.50
2022-12-03T13:56:21.228Z,8.33
2022-12-03T13:57:24.608Z,7.86
2022-12-03T13:58:28.304Z,9.86
2022-12-03T13:59:31.894Z,9.86
2022-12-03T14:00:35.291Z,12.86
2022-12-03T14:01:38.850Z,15.29
2022-12-03T14:02:42.300Z,12.57
2022-12-03T14:03:45.863Z,12.29
2022-12-03T14:04:49.545Z,15.86
2022-12-03T14:05:53.250Z,21.57
2022-12-03T14:06:56.645Z,23.14
2022-12-03T14:08:00.321Z,28.00
2022-12-03T14:09:03.358Z,37.00
2022-12-03T14:10:06.585Z,37.33
2022-12-03T14:11:09.767Z,39.71
2022-12-03T14:12:14.069Z,43.33
2022-12-03T14:13:17.565Z,42.50
2022-12-03T14:14:20.743Z,45.14
2022-12-03T14:15:24.285Z,45.67
2022-12-03T14:16:27.669Z,44.57
2022-12-03T14:17:31.007Z,44.00